sensor_id;sensor_type;location;lat;lon;timestamp;P1;durP1;ratioP1;P2;durP2;ratioP2
11531;SDS011;5822;51.000;5.874;2022-09-03T00:00:07;26.37;;;24.03;;
11531;SDS011;5822;51.000;5.874;2022-09-03T00:02:43;27.17;;;24.70;;
11531;SDS011;5822;51.000;5.874;2022-09-03T00:09:06;28.20;;;25.80;;
11531;SDS011;5822;51.000;5.874;2022-09-03T00:14:03;25.97;;;23.57;;
11531;SDS011;5822;51.000;5.874;2022-09-03T00:16:53;26.83;;;24.27;;
11531;SDS011;5822;51.000;5.874;2022-09-03T00:19:29;26.90;;;24.50;;
11531;SDS011;5822;51.000;5.874;2022-09-03T00:21:58;26.10;;;23.70;;
11531;SDS011;5822;51.000;5.874;2022-09-03T00:24:33;27.97;;;25.37;;
11531;SDS011;5822;51.000;5.874;2022-09-03T00:27:04;27.27;;;24.97;;
11531;SDS011;5822;51.000;5.874;2022-09-03T00:29:36;28.77;;;26.10;;
11531;SDS011;5822;51.000;5.874;2022-09-03T00:32:12;27.10;;;24.67;;
11531;SDS011;5822;51.000;5.874;2022-09-03T00:34:44;23.73;;;21.57;;
11531;SDS011;5822;51.000;5.874;2022-09-03T00:37:14;23.43;;;21.20;;
11531;SDS011;5822;51.000;5.874;2022-09-03T00:39:40;24.30;;;22.20;;
11531;SDS011;5822;51.000;5.874;2022-09-03T00:42:10;23.27;;;21.20;;
11531;SDS011;5822;51.000;5.874;2022-09-03T00:47:14;26.10;;;23.70;;
11531;SDS011;5822;51.000;5.874;2022-09-03T00:55:20;24.97;;;22.67;;
11531;SDS011;5822;51.000;5.874;2022-09-03T01:00:44;23.60;;;21.47;;
11531;SDS011;5822;51.000;5.874;2022-09-03T01:13:19;25.70;;;23.40;;
11531;SDS011;5822;51.000;5.874;2022-09-03T01:18:28;24.27;;;22.17;;
11531;SDS011;5822;51.000;5.874;2022-09-03T01:31:57;24.47;;;22.27;;
11531;SDS011;5822;51.000;5.874;2022-09-03T01:37:43;27.87;;;25.47;;
11531;SDS011;5822;51.000;5.874;2022-09-03T01:48:00;24.67;;;22.47;;
11531;SDS011;5822;51.000;5.874;2022-09-03T01:50:38;25.63;;;23.43;;
11531;SDS011;5822;51.000;5.874;2022-09-03T01:53:18;24.43;;;22.30;;
11531;SDS011;5822;51.000;5.874;2022-09-03T01:58:53;27.30;;;25.10;;
11531;SDS011;5822;51.000;5.874;2022-09-03T02:01:28;27.53;;;25.27;;
11531;SDS011;5822;51.000;5.874;2022-09-03T02:04:00;26.13;;;24.03;;
11531;SDS011;5822;51.000;5.874;2022-09-03T02:06:26;26.63;;;24.43;;
11531;SDS011;5822;51.000;5.874;2022-09-03T02:08:55;24.00;;;22.00;;
11531;SDS011;5822;51.000;5.874;2022-09-03T02:11:21;23.17;;;21.17;;
11531;SDS011;5822;51.000;5.874;2022-09-03T02:13:48;25.20;;;23.00;;
11531;SDS011;5822;51.000;5.874;2022-09-03T02:16:24;24.97;;;22.87;;
11531;SDS011;5822;51.000;5.874;2022-09-03T02:18:56;26.47;;;24.37;;
11531;SDS011;5822;51.000;5.874;2022-09-03T02:21:26;24.90;;;22.90;;
11531;SDS011;5822;51.000;5.874;2022-09-03T02:23:55;26.00;;;23.80;;
11531;SDS011;5822;51.000;5.874;2022-09-03T02:26:21;25.93;;;23.87;;
11531;SDS011;5822;51.000;5.874;2022-09-03T02:28:49;24.80;;;22.80;;
11531;SDS011;5822;51.000;5.874;2022-09-03T02:31:16;22.73;;;20.73;;
11531;SDS011;5822;51.000;5.874;2022-09-03T02:33:43;22.90;;;20.80;;
11531;SDS011;5822;51.000;5.874;2022-09-03T02:36:10;24.93;;;22.73;;
11531;SDS011;5822;51.000;5.874;2022-09-03T02:38:39;24.87;;;22.87;;
11531;SDS011;5822;51.000;5.874;2022-09-03T02:41:07;23.63;;;21.63;;
11531;SDS011;5822;51.000;5.874;2022-09-03T02:43:37;24.50;;;22.50;;
11531;SDS011;5822;51.000;5.874;2022-09-03T02:46:13;24.53;;;22.47;;
11531;SDS011;5822;51.000;5.874;2022-09-03T02:48:45;25.17;;;23.07;;
11531;SDS011;5822;51.000;5.874;2022-09-03T02:51:10;25.20;;;22.77;;
11531;SDS011;5822;51.000;5.874;2022-09-03T02:53:36;23.60;;;21.40;;
11531;SDS011;5822;51.000;5.874;2022-09-03T02:56:02;22.67;;;20.73;;
11531;SDS011;5822;51.000;5.874;2022-09-03T02:58:28;23.37;;;21.27;;
11531;SDS011;5822;51.000;5.874;2022-09-03T03:00:55;23.03;;;21.03;;
11531;SDS011;5822;51.000;5.874;2022-09-03T03:03:21;23.07;;;20.97;;
11531;SDS011;5822;51.000;5.874;2022-09-03T03:05:48;24.93;;;22.80;;
11531;SDS011;5822;51.000;5.874;2022-09-03T03:08:22;25.57;;;23.37;;
11531;SDS011;5822;51.000;5.874;2022-09-03T03:10:51;25.53;;;23.43;;
11531;SDS011;5822;51.000;5.874;2022-09-03T03:13:20;24.63;;;22.53;;
11531;SDS011;5822;51.000;5.874;2022-09-03T03:15:45;24.87;;;22.57;;
11531;SDS011;5822;51.000;5.874;2022-09-03T03:18:12;22.80;;;20.90;;
11531;SDS011;5822;51.000;5.874;2022-09-03T03:20:39;22.93;;;20.93;;
11531;SDS011;5822;51.000;5.874;2022-09-03T03:23:06;23.27;;;21.17;;
11531;SDS011;5822;51.000;5.874;2022-09-03T03:25:32;22.70;;;20.70;;
11531;SDS011;5822;51.000;5.874;2022-09-03T03:27:59;23.93;;;21.93;;
11531;SDS011;5822;51.000;5.874;2022-09-03T03:30:25;24.83;;;22.73;;
11531;SDS011;5822;51.000;5.874;2022-09-03T03:32:52;23.97;;;22.07;;
11531;SDS011;5822;51.000;5.874;2022-09-03T03:35:18;24.47;;;22.47;;
11531;SDS011;5822;51.000;5.874;2022-09-03T03:37:44;23.27;;;21.27;;
11531;SDS011;5822;51.000;5.874;2022-09-03T03:40:10;23.53;;;21.63;;
11531;SDS011;5822;51.000;5.874;2022-09-03T03:42:37;22.90;;;21.00;;
11531;SDS011;5822;51.000;5.874;2022-09-03T03:45:03;23.27;;;21.37;;
11531;SDS011;5822;51.000;5.874;2022-09-03T03:47:30;23.57;;;21.53;;
11531;SDS011;5822;51.000;5.874;2022-09-03T03:49:56;25.20;;;23.00;;
11531;SDS011;5822;51.000;5.874;2022-09-03T03:52:22;25.03;;;23.03;;
11531;SDS011;5822;51.000;5.874;2022-09-03T03:54:49;23.60;;;21.60;;
11531;SDS011;5822;51.000;5.874;2022-09-03T03:57:15;24.40;;;22.30;;
11531;SDS011;5822;51.000;5.874;2022-09-03T03:59:41;24.93;;;22.73;;
11531;SDS011;5822;51.000;5.874;2022-09-03T04:02:07;24.93;;;22.83;;
11531;SDS011;5822;51.000;5.874;2022-09-03T04:04:32;24.67;;;22.57;;
11531;SDS011;5822;51.000;5.874;2022-09-03T04:06:58;24.20;;;22.20;;
11531;SDS011;5822;51.000;5.874;2022-09-03T04:09:23;23.67;;;21.67;;
11531;SDS011;5822;51.000;5.874;2022-09-03T04:11:49;23.70;;;21.70;;
11531;SDS011;5822;51.000;5.874;2022-09-03T04:14:15;23.50;;;21.50;;
11531;SDS011;5822;51.000;5.874;2022-09-03T04:16:44;22.97;;;20.97;;
11531;SDS011;5822;51.000;5.874;2022-09-03T04:19:11;22.83;;;20.83;;
11531;SDS011;5822;51.000;5.874;2022-09-03T04:21:37;22.70;;;20.70;;
11531;SDS011;5822;51.000;5.874;2022-09-03T04:24:04;24.00;;;22.00;;
11531;SDS011;5822;51.000;5.874;2022-09-03T04:26:30;23.30;;;21.30;;
11531;SDS011;5822;51.000;5.874;2022-09-03T04:28:58;24.07;;;21.93;;
11531;SDS011;5822;51.000;5.874;2022-09-03T04:31:25;23.37;;;21.47;;
11531;SDS011;5822;51.000;5.874;2022-09-03T04:33:50;22.97;;;20.90;;
11531;SDS011;5822;51.000;5.874;2022-09-03T04:36:17;23.17;;;21.27;;
11531;SDS011;5822;51.000;5.874;2022-09-03T04:38:47;22.93;;;21.03;;
11531;SDS011;5822;51.000;5.874;2022-09-03T04:41:15;23.13;;;20.97;;
11531;SDS011;5822;51.000;5.874;2022-09-03T04:43:42;22.90;;;21.00;;
11531;SDS011;5822;51.000;5.874;2022-09-03T04:46:10;22.50;;;20.60;;
11531;SDS011;5822;51.000;5.874;2022-09-03T04:48:37;23.33;;;21.20;;
11531;SDS011;5822;51.000;5.874;2022-09-03T04:53:34;24.57;;;22.40;;
11531;SDS011;5822;51.000;5.874;2022-09-03T04:56:01;24.57;;;22.57;;
11531;SDS011;5822;51.000;5.874;2022-09-03T04:58:27;24.77;;;22.77;;
11531;SDS011;5822;51.000;5.874;2022-09-03T05:00:53;28.13;;;25.73;;
11531;SDS011;5822;51.000;5.874;2022-09-03T05:03:18;29.33;;;27.03;;
11531;SDS011;5822;51.000;5.874;2022-09-03T05:05:53;42.23;;;39.43;;
11531;SDS011;5822;51.000;5.874;2022-09-03T05:08:20;42.30;;;39.60;;
11531;SDS011;5822;51.000;5.874;2022-09-03T05:10:46;46.47;;;43.40;;
11531;SDS011;5822;51.000;5.874;2022-09-03T05:13:12;42.27;;;39.57;;
11531;SDS011;5822;51.000;5.874;2022-09-03T05:15:37;44.33;;;41.33;;
11531;SDS011;5822;51.000;5.874;2022-09-03T05:18:03;41.83;;;38.93;;
11531;SDS011;5822;51.000;5.874;2022-09-03T05:20:29;40.87;;;38.07;;
11531;SDS011;5822;51.000;5.874;2022-09-03T05:22:56;42.10;;;39.10;;
11531;SDS011;5822;51.000;5.874;2022-09-03T05:25:26;48.40;;;45.10;;
11531;SDS011;5822;51.000;5.874;2022-09-03T05:27:51;55.10;;;51.70;;
11531;SDS011;5822;51.000;5.874;2022-09-03T05:30:18;38.80;;;36.07;;
11531;SDS011;5822;51.000;5.874;2022-09-03T05:32:46;40.97;;;38.10;;
11531;SDS011;5822;51.000;5.874;2022-09-03T05:35:12;43.53;;;40.67;;
11531;SDS011;5822;51.000;5.874;2022-09-03T05:37:38;40.00;;;37.27;;
11531;SDS011;5822;51.000;5.874;2022-09-03T05:40:04;41.27;;;38.47;;
11531;SDS011;5822;51.000;5.874;2022-09-03T05:42:31;43.80;;;40.90;;
11531;SDS011;5822;51.000;5.874;2022-09-03T05:45:04;38.47;;;35.87;;
11531;SDS011;5822;51.000;5.874;2022-09-03T05:47:32;39.87;;;37.03;;
11531;SDS011;5822;51.000;5.874;2022-09-03T05:49:57;42.33;;;39.53;;
11531;SDS011;5822;51.000;5.874;2022-09-03T05:52:23;42.87;;;40.03;;
11531;SDS011;5822;51.000;5.874;2022-09-03T05:54:49;43.70;;;40.60;;
11531;SDS011;5822;51.000;5.874;2022-09-03T05:57:14;40.87;;;38.17;;
11531;SDS011;5822;51.000;5.874;2022-09-03T05:59:40;37.90;;;35.30;;
11531;SDS011;5822;51.000;5.874;2022-09-03T06:02:05;38.93;;;36.23;;
11531;SDS011;5822;51.000;5.874;2022-09-03T06:04:31;41.87;;;38.87;;
11531;SDS011;5822;51.000;5.874;2022-09-03T06:06:57;43.03;;;39.93;;
11531;SDS011;5822;51.000;5.874;2022-09-03T06:09:23;42.67;;;39.77;;
11531;SDS011;5822;51.000;5.874;2022-09-03T06:11:48;40.57;;;37.63;;
11531;SDS011;5822;51.000;5.874;2022-09-03T06:14:15;30.77;;;28.47;;
11531;SDS011;5822;51.000;5.874;2022-09-03T06:16:42;29.17;;;26.97;;
11531;SDS011;5822;51.000;5.874;2022-09-03T06:19:09;30.60;;;27.97;;
11531;SDS011;5822;51.000;5.874;2022-09-03T06:21:37;29.40;;;27.20;;
11531;SDS011;5822;51.000;5.874;2022-09-03T06:24:07;30.40;;;28.00;;
11531;SDS011;5822;51.000;5.874;2022-09-03T06:26:48;27.73;;;25.63;;
11531;SDS011;5822;51.000;5.874;2022-09-03T06:29:15;28.23;;;25.97;;
11531;SDS011;5822;51.000;5.874;2022-09-03T06:31:44;27.83;;;25.53;;
11531;SDS011;5822;51.000;5.874;2022-09-03T06:34:10;30.53;;;28.23;;
11531;SDS011;5822;51.000;5.874;2022-09-03T06:36:36;30.23;;;27.93;;
11531;SDS011;5822;51.000;5.874;2022-09-03T06:39:01;29.97;;;27.67;;
11531;SDS011;5822;51.000;5.874;2022-09-03T06:41:28;29.60;;;26.97;;
11531;SDS011;5822;51.000;5.874;2022-09-03T06:44:00;29.80;;;27.30;;
11531;SDS011;5822;51.000;5.874;2022-09-03T06:46:31;28.97;;;26.63;;
11531;SDS011;5822;51.000;5.874;2022-09-03T06:49:02;29.20;;;26.90;;
11531;SDS011;5822;51.000;5.874;2022-09-03T06:51:29;29.17;;;26.77;;
11531;SDS011;5822;51.000;5.874;2022-09-03T06:54:00;27.10;;;24.83;;
11531;SDS011;5822;51.000;5.874;2022-09-03T06:56:30;29.37;;;26.97;;
11531;SDS011;5822;51.000;5.874;2022-09-03T06:58:57;30.43;;;28.10;;
11531;SDS011;5822;51.000;5.874;2022-09-03T07:01:25;30.80;;;28.40;;
11531;SDS011;5822;51.000;5.874;2022-09-03T07:03:54;28.90;;;26.80;;
11531;SDS011;5822;51.000;5.874;2022-09-03T07:06:23;27.00;;;24.80;;
11531;SDS011;5822;51.000;5.874;2022-09-03T07:08:51;29.20;;;26.90;;
11531;SDS011;5822;51.000;5.874;2022-09-03T07:11:19;29.70;;;27.40;;
11531;SDS011;5822;51.000;5.874;2022-09-03T07:13:50;29.23;;;26.87;;
11531;SDS011;5822;51.000;5.874;2022-09-03T07:16:17;31.53;;;29.07;;
11531;SDS011;5822;51.000;5.874;2022-09-03T07:18:43;33.10;;;30.60;;
11531;SDS011;5822;51.000;5.874;2022-09-03T07:21:12;34.17;;;31.67;;
11531;SDS011;5822;51.000;5.874;2022-09-03T07:23:43;29.93;;;27.53;;
11531;SDS011;5822;51.000;5.874;2022-09-03T07:26:11;28.63;;;26.03;;
11531;SDS011;5822;51.000;5.874;2022-09-03T07:28:41;28.80;;;26.53;;
11531;SDS011;5822;51.000;5.874;2022-09-03T07:31:11;28.50;;;26.20;;
11531;SDS011;5822;51.000;5.874;2022-09-03T07:33:40;28.27;;;25.77;;
11531;SDS011;5822;51.000;5.874;2022-09-03T07:36:07;27.10;;;24.63;;
11531;SDS011;5822;51.000;5.874;2022-09-03T07:38:38;28.13;;;25.93;;
11531;SDS011;5822;51.000;5.874;2022-09-03T07:41:05;26.07;;;23.87;;
11531;SDS011;5822;51.000;5.874;2022-09-03T07:43:39;26.70;;;24.40;;
11531;SDS011;5822;51.000;5.874;2022-09-03T07:46:17;25.83;;;23.63;;
11531;SDS011;5822;51.000;5.874;2022-09-03T07:48:51;27.23;;;25.03;;
11531;SDS011;5822;51.000;5.874;2022-09-03T07:51:18;28.43;;;26.13;;
11531;SDS011;5822;51.000;5.874;2022-09-03T07:53:46;28.80;;;26.30;;
11531;SDS011;5822;51.000;5.874;2022-09-03T07:56:13;28.07;;;25.80;;
11531;SDS011;5822;51.000;5.874;2022-09-03T07:58:39;28.00;;;25.60;;
11531;SDS011;5822;51.000;5.874;2022-09-03T08:01:10;26.37;;;23.87;;
11531;SDS011;5822;51.000;5.874;2022-09-03T08:03:38;26.33;;;24.13;;
11531;SDS011;5822;51.000;5.874;2022-09-03T08:06:07;27.97;;;25.67;;
11531;SDS011;5822;51.000;5.874;2022-09-03T08:08:34;28.37;;;26.03;;
11531;SDS011;5822;51.000;5.874;2022-09-03T08:11:04;27.57;;;25.27;;
11531;SDS011;5822;51.000;5.874;2022-09-03T08:13:34;27.80;;;25.60;;
11531;SDS011;5822;51.000;5.874;2022-09-03T08:16:04;26.30;;;24.20;;
11531;SDS011;5822;51.000;5.874;2022-09-03T08:18:32;27.87;;;25.70;;
11531;SDS011;5822;51.000;5.874;2022-09-03T08:21:02;29.40;;;27.10;;
11531;SDS011;5822;51.000;5.874;2022-09-03T08:23:30;29.20;;;26.80;;
11531;SDS011;5822;51.000;5.874;2022-09-03T08:25:57;29.77;;;27.37;;
11531;SDS011;5822;51.000;5.874;2022-09-03T08:28:24;29.97;;;27.67;;
11531;SDS011;5822;51.000;5.874;2022-09-03T08:30:49;28.67;;;26.37;;
11531;SDS011;5822;51.000;5.874;2022-09-03T08:33:15;28.53;;;26.13;;
11531;SDS011;5822;51.000;5.874;2022-09-03T08:35:41;28.00;;;25.63;;
11531;SDS011;5822;51.000;5.874;2022-09-03T08:38:06;26.93;;;24.47;;
11531;SDS011;5822;51.000;5.874;2022-09-03T08:40:32;26.00;;;23.90;;
11531;SDS011;5822;51.000;5.874;2022-09-03T08:45:42;33.93;;;31.53;;
11531;SDS011;5822;51.000;5.874;2022-09-03T08:48:10;33.13;;;30.53;;
11531;SDS011;5822;51.000;5.874;2022-09-03T08:50:45;32.73;;;30.33;;
11531;SDS011;5822;51.000;5.874;2022-09-03T08:55:59;34.00;;;31.30;;
11531;SDS011;5822;51.000;5.874;2022-09-03T08:58:32;29.93;;;27.60;;
11531;SDS011;5822;51.000;5.874;2022-09-03T09:03:40;27.00;;;24.70;;
11531;SDS011;5822;51.000;5.874;2022-09-03T09:17:00;28.17;;;25.77;;
11531;SDS011;5822;51.000;5.874;2022-09-03T09:19:48;28.30;;;26.07;;
11531;SDS011;5822;51.000;5.874;2022-09-03T09:22:35;27.07;;;24.77;;
11531;SDS011;5822;51.000;5.874;2022-09-03T09:25:06;28.47;;;26.17;;
11531;SDS011;5822;51.000;5.874;2022-09-03T09:27:40;27.80;;;25.50;;
11531;SDS011;5822;51.000;5.874;2022-09-03T09:30:11;39.97;;;37.27;;
11531;SDS011;5822;51.000;5.874;2022-09-03T09:32:39;47.40;;;44.50;;
11531;SDS011;5822;51.000;5.874;2022-09-03T09:35:07;42.03;;;39.17;;
11531;SDS011;5822;51.000;5.874;2022-09-03T09:37:34;39.00;;;36.40;;
11531;SDS011;5822;51.000;5.874;2022-09-03T09:40:31;39.60;;;37.00;;
11531;SDS011;5822;51.000;5.874;2022-09-03T09:45:36;31.80;;;29.40;;
11531;SDS011;5822;51.000;5.874;2022-09-03T09:48:12;30.20;;;27.87;;
11531;SDS011;5822;51.000;5.874;2022-09-03T09:51:05;37.23;;;34.63;;
11531;SDS011;5822;51.000;5.874;2022-09-03T09:53:35;43.37;;;40.43;;
11531;SDS011;5822;51.000;5.874;2022-09-03T09:56:02;51.43;;;48.33;;
11531;SDS011;5822;51.000;5.874;2022-09-03T09:58:28;52.13;;;49.00;;
11531;SDS011;5822;51.000;5.874;2022-09-03T10:03:23;38.77;;;36.23;;
11531;SDS011;5822;51.000;5.874;2022-09-03T10:06:05;41.73;;;38.93;;
11531;SDS011;5822;51.000;5.874;2022-09-03T10:09:13;40.80;;;38.20;;
11531;SDS011;5822;51.000;5.874;2022-09-03T10:11:42;51.07;;;47.97;;
11531;SDS011;5822;51.000;5.874;2022-09-03T10:14:15;40.00;;;37.30;;
11531;SDS011;5822;51.000;5.874;2022-09-03T10:16:56;41.30;;;38.60;;
11531;SDS011;5822;51.000;5.874;2022-09-03T10:22:54;53.03;;;49.83;;
11531;SDS011;5822;51.000;5.874;2022-09-03T10:25:20;53.87;;;50.67;;
11531;SDS011;5822;51.000;5.874;2022-09-03T10:27:51;39.30;;;36.70;;
11531;SDS011;5822;51.000;5.874;2022-09-03T10:30:18;39.00;;;36.40;;
11531;SDS011;5822;51.000;5.874;2022-09-03T10:35:30;45.60;;;42.70;;
11531;SDS011;5822;51.000;5.874;2022-09-03T10:40:51;41.83;;;39.03;;
11531;SDS011;5822;51.000;5.874;2022-09-03T10:46:25;39.07;;;36.47;;
11531;SDS011;5822;51.000;5.874;2022-09-03T10:49:11;46.23;;;43.27;;
11531;SDS011;5822;51.000;5.874;2022-09-03T10:51:58;50.37;;;47.27;;
11531;SDS011;5822;51.000;5.874;2022-09-03T11:05:45;50.07;;;46.93;;
11531;SDS011;5822;51.000;5.874;2022-09-03T11:11:09;39.63;;;37.00;;
11531;SDS011;5822;51.000;5.874;2022-09-03T11:13:43;44.00;;;41.20;;
11531;SDS011;5822;51.000;5.874;2022-09-03T11:16:31;42.00;;;39.40;;
11531;SDS011;5822;51.000;5.874;2022-09-03T11:19:01;49.73;;;46.53;;
11531;SDS011;5822;51.000;5.874;2022-09-03T11:21:30;50.20;;;47.10;;
11531;SDS011;5822;51.000;5.874;2022-09-03T11:26:37;39.77;;;37.07;;
11531;SDS011;5822;51.000;5.874;2022-09-03T11:29:30;40.57;;;37.97;;
11531;SDS011;5822;51.000;5.874;2022-09-03T11:32:23;37.73;;;35.17;;
11531;SDS011;5822;51.000;5.874;2022-09-03T11:34:53;49.67;;;46.57;;
11531;SDS011;5822;51.000;5.874;2022-09-03T11:37:29;49.63;;;46.53;;
11531;SDS011;5822;51.000;5.874;2022-09-03T11:40:05;54.70;;;51.00;;
11531;SDS011;5822;51.000;5.874;2022-09-03T11:42:41;40.37;;;37.67;;
11531;SDS011;5822;51.000;5.874;2022-09-03T11:47:51;40.57;;;37.90;;
11531;SDS011;5822;51.000;5.874;2022-09-03T11:50:22;52.57;;;49.37;;
11531;SDS011;5822;51.000;5.874;2022-09-03T11:52:49;50.27;;;47.13;;
11531;SDS011;5822;51.000;5.874;2022-09-03T11:55:23;50.27;;;47.17;;
11531;SDS011;5822;51.000;5.874;2022-09-03T11:57:50;50.37;;;47.17;;
11531;SDS011;5822;51.000;5.874;2022-09-03T12:00:17;50.37;;;47.27;;
11531;SDS011;5822;51.000;5.874;2022-09-03T12:02:47;49.67;;;46.67;;
11531;SDS011;5822;51.000;5.874;2022-09-03T12:05:19;44.97;;;42.10;;
11531;SDS011;5822;51.000;5.874;2022-09-03T12:10:49;35.93;;;33.33;;
11531;SDS011;5822;51.000;5.874;2022-09-03T12:19:28;54.77;;;51.47;;
11531;SDS011;5822;51.000;5.874;2022-09-03T12:22:02;49.20;;;46.10;;
11531;SDS011;5822;51.000;5.874;2022-09-03T12:24:29;47.17;;;44.23;;
11531;SDS011;5822;51.000;5.874;2022-09-03T12:26:59;55.27;;;51.77;;
11531;SDS011;5822;51.000;5.874;2022-09-03T12:29:26;51.53;;;48.33;;
11531;SDS011;5822;51.000;5.874;2022-09-03T12:31:55;49.80;;;46.70;;
11531;SDS011;5822;51.000;5.874;2022-09-03T12:34:30;48.83;;;45.83;;
11531;SDS011;5822;51.000;5.874;2022-09-03T12:36:56;49.27;;;46.27;;
11531;SDS011;5822;51.000;5.874;2022-09-03T12:39:23;51.53;;;48.43;;
11531;SDS011;5822;51.000;5.874;2022-09-03T12:41:54;35.23;;;32.90;;
11531;SDS011;5822;51.000;5.874;2022-09-03T12:44:36;33.13;;;30.83;;
11531;SDS011;5822;51.000;5.874;2022-09-03T12:49:45;45.93;;;43.13;;
11531;SDS011;5822;51.000;5.874;2022-09-03T12:52:26;50.23;;;47.23;;
11531;SDS011;5822;51.000;5.874;2022-09-03T12:55:11;50.63;;;47.43;;
11531;SDS011;5822;51.000;5.874;2022-09-03T13:00:51;52.30;;;49.10;;
11531;SDS011;5822;51.000;5.874;2022-09-03T13:03:33;50.83;;;47.63;;
11531;SDS011;5822;51.000;5.874;2022-09-03T13:06:13;45.90;;;43.10;;
11531;SDS011;5822;51.000;5.874;2022-09-03T13:08:45;46.43;;;43.63;;
11531;SDS011;5822;51.000;5.874;2022-09-03T13:11:18;46.00;;;43.20;;
11531;SDS011;5822;51.000;5.874;2022-09-03T13:19:14;48.43;;;45.53;;
11531;SDS011;5822;51.000;5.874;2022-09-03T13:30:21;32.97;;;30.67;;
11531;SDS011;5822;51.000;5.874;2022-09-03T13:37:54;53.43;;;50.33;;
11531;SDS011;5822;51.000;5.874;2022-09-03T13:40:53;51.33;;;48.23;;
11531;SDS011;5822;51.000;5.874;2022-09-03T13:49:08;33.33;;;31.03;;
11531;SDS011;5822;51.000;5.874;2022-09-03T13:51:57;33.83;;;31.53;;
11531;SDS011;5822;51.000;5.874;2022-09-03T13:54:28;33.30;;;31.00;;
11531;SDS011;5822;51.000;5.874;2022-09-03T14:05:14;44.67;;;41.90;;
11531;SDS011;5822;51.000;5.874;2022-09-03T14:19:08;33.03;;;30.73;;
11531;SDS011;5822;51.000;5.874;2022-09-03T14:21:46;46.10;;;43.30;;
11531;SDS011;5822;51.000;5.874;2022-09-03T14:26:50;45.65;;;42.85;;
11531;SDS011;5822;51.000;5.874;2022-09-03T14:29:20;46.70;;;43.90;;
11531;SDS011;5822;51.000;5.874;2022-09-03T14:45:47;48.50;;;45.58;;
11531;SDS011;5822;51.000;5.874;2022-09-03T14:48:33;47.03;;;44.22;;
11531;SDS011;5822;51.000;5.874;2022-09-03T15:12:56;48.67;;;45.75;;
11531;SDS011;5822;51.000;5.874;2022-09-03T15:23:59;34.92;;;32.58;;
11531;SDS011;5822;51.000;5.874;2022-09-03T15:28:44;48.15;;;45.25;;
11531;SDS011;5822;51.000;5.874;2022-09-03T15:34:23;32.70;;;30.50;;
11531;SDS011;5822;51.000;5.874;2022-09-03T15:37:07;33.55;;;31.25;;
11531;SDS011;5822;51.000;5.874;2022-09-03T15:39:42;30.13;;;27.98;;
11531;SDS011;5822;51.000;5.874;2022-09-03T15:42:16;36.65;;;34.35;;
11531;SDS011;5822;51.000;5.874;2022-09-03T15:44:50;43.42;;;40.83;;
11531;SDS011;5822;51.000;5.874;2022-09-03T15:47:40;50.22;;;47.30;;
11531;SDS011;5822;51.000;5.874;2022-09-03T15:50:23;48.10;;;45.30;;
11531;SDS011;5822;51.000;5.874;2022-09-03T15:56:05;32.00;;;29.80;;
11531;SDS011;5822;51.000;5.874;2022-09-03T15:58:38;34.60;;;32.30;;
11531;SDS011;5822;51.000;5.874;2022-09-03T16:01:24;40.95;;;38.45;;
11531;SDS011;5822;51.000;5.874;2022-09-03T16:04:04;48.15;;;45.22;;
11531;SDS011;5822;51.000;5.874;2022-09-03T16:09:34;34.60;;;32.20;;
11531;SDS011;5822;51.000;5.874;2022-09-03T16:20:35;36.95;;;34.35;;
11531;SDS011;5822;51.000;5.874;2022-09-03T16:23:09;43.58;;;40.78;;
11531;SDS011;5822;51.000;5.874;2022-09-03T16:34:33;39.75;;;37.20;;
11531;SDS011;5822;51.000;5.874;2022-09-03T16:59:52;33.50;;;31.20;;
11531;SDS011;5822;51.000;5.874;2022-09-03T17:15:57;34.83;;;32.53;;
11531;SDS011;5822;51.000;5.874;2022-09-03T17:23:47;28.07;;;25.87;;
11531;SDS011;5822;51.000;5.874;2022-09-03T17:26:20;27.37;;;25.27;;
11531;SDS011;5822;51.000;5.874;2022-09-03T17:40:31;27.57;;;25.47;;
11531;SDS011;5822;51.000;5.874;2022-09-03T17:49:44;26.57;;;24.47;;
11531;SDS011;5822;51.000;5.874;2022-09-03T17:52:20;33.90;;;31.50;;
11531;SDS011;5822;51.000;5.874;2022-09-03T17:54:52;31.77;;;29.47;;
11531;SDS011;5822;51.000;5.874;2022-09-03T17:57:21;48.87;;;45.80;;
11531;SDS011;5822;51.000;5.874;2022-09-03T18:05:18;28.13;;;26.03;;
11531;SDS011;5822;51.000;5.874;2022-09-03T18:07:51;29.27;;;27.17;;
11531;SDS011;5822;51.000;5.874;2022-09-03T18:18:20;27.30;;;25.30;;
11531;SDS011;5822;51.000;5.874;2022-09-03T18:20:54;30.43;;;28.30;;
11531;SDS011;5822;51.000;5.874;2022-09-03T18:26:47;46.33;;;43.53;;
11531;SDS011;5822;51.000;5.874;2022-09-03T18:30:00;26.47;;;24.47;;
11531;SDS011;5822;51.000;5.874;2022-09-03T18:32:52;26.83;;;24.73;;
11531;SDS011;5822;51.000;5.874;2022-09-03T18:35:37;29.70;;;27.50;;
11531;SDS011;5822;51.000;5.874;2022-09-03T18:38:26;44.43;;;41.73;;
11531;SDS011;5822;51.000;5.874;2022-09-03T18:47:22;28.20;;;25.90;;
11531;SDS011;5822;51.000;5.874;2022-09-03T18:50:27;35.75;;;33.25;;
11531;SDS011;5822;51.000;5.874;2022-09-03T18:56:26;30.17;;;27.83;;
11531;SDS011;5822;51.000;5.874;2022-09-03T19:02:26;37.23;;;34.47;;
11531;SDS011;5822;51.000;5.874;2022-09-03T19:05:33;27.90;;;25.67;;
11531;SDS011;5822;51.000;5.874;2022-09-03T19:08:28;37.90;;;35.20;;
11531;SDS011;5822;51.000;5.874;2022-09-03T19:11:28;35.33;;;32.87;;
11531;SDS011;5822;51.000;5.874;2022-09-03T19:14:29;29.57;;;27.20;;
11531;SDS011;5822;51.000;5.874;2022-09-03T19:17:25;29.17;;;26.80;;
11531;SDS011;5822;51.000;5.874;2022-09-03T19:20:30;33.80;;;31.40;;
11531;SDS011;5822;51.000;5.874;2022-09-03T19:23:17;38.73;;;36.23;;
11531;SDS011;5822;51.000;5.874;2022-09-03T19:26:28;29.23;;;26.93;;
11531;SDS011;5822;51.000;5.874;2022-09-03T19:32:24;32.63;;;30.07;;
11531;SDS011;5822;51.000;5.874;2022-09-03T19:35:22;29.27;;;26.90;;
11531;SDS011;5822;51.000;5.874;2022-09-03T19:41:32;32.37;;;30.07;;
11531;SDS011;5822;51.000;5.874;2022-09-03T19:53:58;30.27;;;28.03;;
11531;SDS011;5822;51.000;5.874;2022-09-03T19:56:45;36.87;;;34.23;;
11531;SDS011;5822;51.000;5.874;2022-09-03T19:59:32;31.40;;;29.00;;
11531;SDS011;5822;51.000;5.874;2022-09-03T20:02:21;28.87;;;26.67;;
11531;SDS011;5822;51.000;5.874;2022-09-03T20:05:08;37.00;;;34.50;;
11531;SDS011;5822;51.000;5.874;2022-09-03T20:07:56;26.80;;;24.70;;
11531;SDS011;5822;51.000;5.874;2022-09-03T20:10:42;27.47;;;25.17;;
11531;SDS011;5822;51.000;5.874;2022-09-03T20:13:15;28.47;;;26.33;;
11531;SDS011;5822;51.000;5.874;2022-09-03T20:16:01;28.73;;;26.63;;
11531;SDS011;5822;51.000;5.874;2022-09-03T20:19:13;27.08;;;24.88;;
11531;SDS011;5822;51.000;5.874;2022-09-03T20:21:58;29.10;;;26.90;;
11531;SDS011;5822;51.000;5.874;2022-09-03T20:27:36;31.13;;;28.93;;
11531;SDS011;5822;51.000;5.874;2022-09-03T20:30:15;27.17;;;25.07;;
11531;SDS011;5822;51.000;5.874;2022-09-03T20:35:34;25.60;;;23.43;;
11531;SDS011;5822;51.000;5.874;2022-09-03T20:38:20;35.10;;;32.70;;
11531;SDS011;5822;51.000;5.874;2022-09-03T20:41:06;36.37;;;33.97;;
11531;SDS011;5822;51.000;5.874;2022-09-03T20:46:58;27.73;;;25.53;;
11531;SDS011;5822;51.000;5.874;2022-09-03T20:49:57;26.80;;;24.70;;
11531;SDS011;5822;51.000;5.874;2022-09-03T20:52:53;25.83;;;23.73;;
11531;SDS011;5822;51.000;5.874;2022-09-03T20:55:40;27.60;;;25.50;;
11531;SDS011;5822;51.000;5.874;2022-09-03T21:12:01;24.37;;;22.20;;
11531;SDS011;5822;51.000;5.874;2022-09-03T21:14:46;23.17;;;21.17;;
11531;SDS011;5822;51.000;5.874;2022-09-03T21:20:43;24.50;;;22.30;;
11531;SDS011;5822;51.000;5.874;2022-09-03T21:28:51;23.17;;;21.17;;
11531;SDS011;5822;51.000;5.874;2022-09-03T21:31:47;23.80;;;21.67;;